sensor_id;sensor_type;location;lat;lon;timestamp;P1;durP1;ratioP1;P2;durP2;ratioP2
56770;SDS011;42641;59.794;17.616;2023-12-20T00:01:54;3.20;;;1.00;;
56770;SDS011;42641;59.794;17.616;2023-12-20T00:04:21;2.17;;;1.20;;
56770;SDS011;42641;59.794;17.616;2023-12-20T00:06:47;3.70;;;1.10;;
56770;SDS011;42641;59.794;17.616;2023-12-20T00:09:14;3.00;;;1.40;;
56770;SDS011;42641;59.794;17.616;2023-12-20T00:11:40;4.00;;;1.30;;
56770;SDS011;42641;59.794;17.616;2023-12-20T00:14:07;2.83;;;1.43;;
56770;SDS011;42641;59.794;17.616;2023-12-20T00:16:34;2.80;;;1.33;;
56770;SDS011;42641;59.794;17.616;2023-12-20T00:19:00;5.67;;;1.50;;
56770;SDS011;42641;59.794;17.616;2023-12-20T00:21:27;3.57;;;1.13;;
56770;SDS011;42641;59.794;17.616;2023-12-20T00:23:53;4.53;;;1.57;;
56770;SDS011;42641;59.794;17.616;2023-12-20T00:26:19;3.27;;;1.30;;
56770;SDS011;42641;59.794;17.616;2023-12-20T00:28:46;8.10;;;1.60;;
56770;SDS011;42641;59.794;17.616;2023-12-20T00:31:14;3.30;;;1.30;;
56770;SDS011;42641;59.794;17.616;2023-12-20T00:33:41;2.97;;;1.20;;
56770;SDS011;42641;59.794;17.616;2023-12-20T00:36:09;7.20;;;1.60;;
56770;SDS011;42641;59.794;17.616;2023-12-20T00:38:35;5.40;;;1.40;;
56770;SDS011;42641;59.794;17.616;2023-12-20T00:41:02;5.23;;;1.33;;
56770;SDS011;42641;59.794;17.616;2023-12-20T00:43:28;3.87;;;1.40;;
56770;SDS011;42641;59.794;17.616;2023-12-20T00:45:55;4.93;;;1.57;;
56770;SDS011;42641;59.794;17.616;2023-12-20T00:48:21;6.20;;;1.40;;
56770;SDS011;42641;59.794;17.616;2023-12-20T00:50:47;3.40;;;1.30;;
56770;SDS011;42641;59.794;17.616;2023-12-20T00:53:14;3.33;;;1.57;;
56770;SDS011;42641;59.794;17.616;2023-12-20T00:55:40;4.40;;;1.23;;
56770;SDS011;42641;59.794;17.616;2023-12-20T00:58:06;4.63;;;1.67;;
56770;SDS011;42641;59.794;17.616;2023-12-20T01:00:33;5.07;;;1.50;;
56770;SDS011;42641;59.794;17.616;2023-12-20T01:02:59;4.07;;;1.30;;
56770;SDS011;42641;59.794;17.616;2023-12-20T01:05:26;3.90;;;1.30;;
56770;SDS011;42641;59.794;17.616;2023-12-20T01:07:52;4.57;;;1.50;;
56770;SDS011;42641;59.794;17.616;2023-12-20T01:10:19;4.83;;;1.40;;
56770;SDS011;42641;59.794;17.616;2023-12-20T01:12:45;5.50;;;1.67;;
56770;SDS011;42641;59.794;17.616;2023-12-20T01:15:11;3.53;;;1.33;;
56770;SDS011;42641;59.794;17.616;2023-12-20T01:17:38;4.33;;;1.20;;
56770;SDS011;42641;59.794;17.616;2023-12-20T01:20:04;5.93;;;1.30;;
56770;SDS011;42641;59.794;17.616;2023-12-20T01:22:31;1.07;;;0.90;;
56770;SDS011;42641;59.794;17.616;2023-12-20T01:24:58;8.47;;;1.70;;
56770;SDS011;42641;59.794;17.616;2023-12-20T01:27:24;4.30;;;1.33;;
56770;SDS011;42641;59.794;17.616;2023-12-20T01:29:51;3.50;;;1.30;;
56770;SDS011;42641;59.794;17.616;2023-12-20T01:32:17;2.07;;;0.90;;
56770;SDS011;42641;59.794;17.616;2023-12-20T01:34:43;3.00;;;1.13;;
56770;SDS011;42641;59.794;17.616;2023-12-20T01:37:10;4.83;;;1.73;;
56770;SDS011;42641;59.794;17.616;2023-12-20T01:39:36;7.03;;;1.53;;
56770;SDS011;42641;59.794;17.616;2023-12-20T01:42:02;3.93;;;1.30;;
56770;SDS011;42641;59.794;17.616;2023-12-20T01:44:29;4.50;;;1.20;;
56770;SDS011;42641;59.794;17.616;2023-12-20T01:46:55;6.13;;;1.70;;
56770;SDS011;42641;59.794;17.616;2023-12-20T01:49:23;5.43;;;1.33;;
56770;SDS011;42641;59.794;17.616;2023-12-20T01:51:50;3.47;;;1.27;;
56770;SDS011;42641;59.794;17.616;2023-12-20T01:54:16;2.90;;;1.30;;
56770;SDS011;42641;59.794;17.616;2023-12-20T01:56:45;5.27;;;1.30;;
56770;SDS011;42641;59.794;17.616;2023-12-20T01:59:11;4.70;;;1.60;;
56770;SDS011;42641;59.794;17.616;2023-12-20T02:01:38;3.80;;;1.30;;
56770;SDS011;42641;59.794;17.616;2023-12-20T02:04:05;6.37;;;1.57;;
56770;SDS011;42641;59.794;17.616;2023-12-20T02:06:31;2.53;;;1.30;;
56770;SDS011;42641;59.794;17.616;2023-12-20T02:08:59;5.47;;;1.50;;
56770;SDS011;42641;59.794;17.616;2023-12-20T02:11:26;3.63;;;1.70;;
56770;SDS011;42641;59.794;17.616;2023-12-20T02:13:53;6.17;;;1.73;;
56770;SDS011;42641;59.794;17.616;2023-12-20T02:16:19;7.57;;;1.63;;
56770;SDS011;42641;59.794;17.616;2023-12-20T02:18:47;5.97;;;1.50;;
56770;SDS011;42641;59.794;17.616;2023-12-20T02:21:14;5.03;;;1.60;;
56770;SDS011;42641;59.794;17.616;2023-12-20T02:23:41;5.63;;;1.67;;
56770;SDS011;42641;59.794;17.616;2023-12-20T02:26:07;4.73;;;1.87;;
56770;SDS011;42641;59.794;17.616;2023-12-20T02:28:34;4.47;;;1.60;;
56770;SDS011;42641;59.794;17.616;2023-12-20T02:31:01;7.10;;;1.43;;
56770;SDS011;42641;59.794;17.616;2023-12-20T02:33:27;2.97;;;1.47;;
56770;SDS011;42641;59.794;17.616;2023-12-20T02:35:53;6.13;;;1.40;;
56770;SDS011;42641;59.794;17.616;2023-12-20T02:38:20;9.07;;;2.17;;
56770;SDS011;42641;59.794;17.616;2023-12-20T02:40:46;5.97;;;1.90;;
56770;SDS011;42641;59.794;17.616;2023-12-20T02:43:13;9.10;;;1.80;;
56770;SDS011;42641;59.794;17.616;2023-12-20T02:45:39;6.27;;;2.03;;
56770;SDS011;42641;59.794;17.616;2023-12-20T02:48:06;3.97;;;1.57;;
56770;SDS011;42641;59.794;17.616;2023-12-20T02:50:33;8.33;;;1.73;;
56770;SDS011;42641;59.794;17.616;2023-12-20T02:53:00;8.57;;;1.80;;
56770;SDS011;42641;59.794;17.616;2023-12-20T02:55:26;5.63;;;1.80;;
56770;SDS011;42641;59.794;17.616;2023-12-20T02:57:52;7.53;;;2.00;;
56770;SDS011;42641;59.794;17.616;2023-12-20T03:00:19;8.43;;;2.03;;
56770;SDS011;42641;59.794;17.616;2023-12-20T03:02:45;11.77;;;2.40;;
56770;SDS011;42641;59.794;17.616;2023-12-20T03:05:12;7.73;;;2.07;;
56770;SDS011;42641;59.794;17.616;2023-12-20T03:07:38;6.03;;;2.37;;
56770;SDS011;42641;59.794;17.616;2023-12-20T03:10:05;11.30;;;2.30;;
56770;SDS011;42641;59.794;17.616;2023-12-20T03:12:33;8.33;;;2.20;;
56770;SDS011;42641;59.794;17.616;2023-12-20T03:14:59;11.17;;;2.23;;
56770;SDS011;42641;59.794;17.616;2023-12-20T03:17:26;6.80;;;1.93;;
56770;SDS011;42641;59.794;17.616;2023-12-20T03:19:52;6.93;;;1.80;;
56770;SDS011;42641;59.794;17.616;2023-12-20T03:22:19;5.60;;;1.87;;
56770;SDS011;42641;59.794;17.616;2023-12-20T03:24:45;7.00;;;2.10;;
56770;SDS011;42641;59.794;17.616;2023-12-20T03:27:12;6.27;;;1.80;;
56770;SDS011;42641;59.794;17.616;2023-12-20T03:29:38;6.57;;;2.27;;
56770;SDS011;42641;59.794;17.616;2023-12-20T03:32:05;6.57;;;2.10;;
56770;SDS011;42641;59.794;17.616;2023-12-20T03:34:31;10.47;;;2.43;;
56770;SDS011;42641;59.794;17.616;2023-12-20T03:36:58;6.80;;;1.80;;
56770;SDS011;42641;59.794;17.616;2023-12-20T03:39:24;6.70;;;2.07;;
56770;SDS011;42641;59.794;17.616;2023-12-20T03:41:50;7.57;;;2.20;;
56770;SDS011;42641;59.794;17.616;2023-12-20T03:44:17;8.87;;;2.10;;
56770;SDS011;42641;59.794;17.616;2023-12-20T03:46:43;12.53;;;2.10;;
56770;SDS011;42641;59.794;17.616;2023-12-20T03:49:11;7.67;;;1.90;;
56770;SDS011;42641;59.794;17.616;2023-12-20T03:51:37;11.90;;;2.40;;
56770;SDS011;42641;59.794;17.616;2023-12-20T03:54:04;4.33;;;1.70;;
56770;SDS011;42641;59.794;17.616;2023-12-20T03:56:30;12.93;;;2.80;;
56770;SDS011;42641;59.794;17.616;2023-12-20T03:58:57;10.20;;;2.00;;
56770;SDS011;42641;59.794;17.616;2023-12-20T04:01:23;9.57;;;2.10;;
56770;SDS011;42641;59.794;17.616;2023-12-20T04:03:49;6.70;;;1.83;;
56770;SDS011;42641;59.794;17.616;2023-12-20T04:06:17;10.40;;;2.13;;
56770;SDS011;42641;59.794;17.616;2023-12-20T04:08:43;16.10;;;2.13;;
56770;SDS011;42641;59.794;17.616;2023-12-20T04:11:10;11.97;;;2.30;;
56770;SDS011;42641;59.794;17.616;2023-12-20T04:13:36;7.47;;;2.10;;
56770;SDS011;42641;59.794;17.616;2023-12-20T04:16:03;6.67;;;2.00;;
56770;SDS011;42641;59.794;17.616;2023-12-20T04:18:29;14.13;;;2.50;;
56770;SDS011;42641;59.794;17.616;2023-12-20T04:20:57;9.07;;;2.20;;
56770;SDS011;42641;59.794;17.616;2023-12-20T04:23:24;11.47;;;2.40;;
56770;SDS011;42641;59.794;17.616;2023-12-20T04:25:50;5.50;;;1.90;;
56770;SDS011;42641;59.794;17.616;2023-12-20T04:28:17;7.70;;;2.10;;
56770;SDS011;42641;59.794;17.616;2023-12-20T04:30:43;7.07;;;1.83;;
56770;SDS011;42641;59.794;17.616;2023-12-20T04:33:10;8.83;;;2.07;;
56770;SDS011;42641;59.794;17.616;2023-12-20T04:35:36;11.37;;;2.30;;
56770;SDS011;42641;59.794;17.616;2023-12-20T04:38:02;16.50;;;3.30;;
56770;SDS011;42641;59.794;17.616;2023-12-20T04:40:29;18.17;;;3.70;;
56770;SDS011;42641;59.794;17.616;2023-12-20T04:42:55;14.00;;;2.80;;
56770;SDS011;42641;59.794;17.616;2023-12-20T04:45:22;13.03;;;3.07;;
56770;SDS011;42641;59.794;17.616;2023-12-20T04:47:50;11.47;;;2.90;;
56770;SDS011;42641;59.794;17.616;2023-12-20T04:50:17;15.00;;;3.20;;
56770;SDS011;42641;59.794;17.616;2023-12-20T04:52:45;11.03;;;2.67;;
56770;SDS011;42641;59.794;17.616;2023-12-20T04:55:11;11.83;;;2.90;;
56770;SDS011;42641;59.794;17.616;2023-12-20T04:57:38;9.03;;;2.80;;
56770;SDS011;42641;59.794;17.616;2023-12-20T05:00:05;14.83;;;3.57;;
56770;SDS011;42641;59.794;17.616;2023-12-20T05:02:37;12.77;;;3.33;;
56770;SDS011;42641;59.794;17.616;2023-12-20T05:05:03;17.83;;;3.60;;
56770;SDS011;42641;59.794;17.616;2023-12-20T05:07:30;14.90;;;3.53;;
56770;SDS011;42641;59.794;17.616;2023-12-20T05:09:56;10.47;;;3.60;;
56770;SDS011;42641;59.794;17.616;2023-12-20T05:12:23;14.90;;;3.40;;
56770;SDS011;42641;59.794;17.616;2023-12-20T05:14:49;14.17;;;4.00;;
56770;SDS011;42641;59.794;17.616;2023-12-20T05:17:17;16.47;;;3.90;;
56770;SDS011;42641;59.794;17.616;2023-12-20T05:19:43;15.90;;;3.70;;
56770;SDS011;42641;59.794;17.616;2023-12-20T05:22:10;12.67;;;4.53;;
56770;SDS011;42641;59.794;17.616;2023-12-20T05:24:37;15.33;;;4.33;;
56770;SDS011;42641;59.794;17.616;2023-12-20T05:27:03;15.37;;;3.53;;
56770;SDS011;42641;59.794;17.616;2023-12-20T05:29:30;18.50;;;3.67;;
56770;SDS011;42641;59.794;17.616;2023-12-20T05:31:57;10.97;;;3.60;;
56770;SDS011;42641;59.794;17.616;2023-12-20T05:34:24;14.60;;;4.07;;
56770;SDS011;42641;59.794;17.616;2023-12-20T05:36:50;20.77;;;4.20;;
56770;SDS011;42641;59.794;17.616;2023-12-20T05:39:17;19.33;;;4.23;;
56770;SDS011;42641;59.794;17.616;2023-12-20T05:41:43;11.03;;;3.40;;
56770;SDS011;42641;59.794;17.616;2023-12-20T05:44:10;16.77;;;4.03;;
56770;SDS011;42641;59.794;17.616;2023-12-20T05:46:36;13.90;;;3.87;;
56770;SDS011;42641;59.794;17.616;2023-12-20T05:49:02;31.30;;;3.93;;
56770;SDS011;42641;59.794;17.616;2023-12-20T05:51:32;14.00;;;4.17;;
56770;SDS011;42641;59.794;17.616;2023-12-20T05:53:58;8.00;;;3.40;;
56770;SDS011;42641;59.794;17.616;2023-12-20T05:56:25;35.80;;;4.87;;
56770;SDS011;42641;59.794;17.616;2023-12-20T05:58:51;23.50;;;5.80;;
56770;SDS011;42641;59.794;17.616;2023-12-20T06:01:18;17.40;;;3.97;;
56770;SDS011;42641;59.794;17.616;2023-12-20T06:03:44;29.40;;;4.40;;
56770;SDS011;42641;59.794;17.616;2023-12-20T06:06:11;12.03;;;3.47;;
56770;SDS011;42641;59.794;17.616;2023-12-20T06:08:41;19.20;;;3.93;;
56770;SDS011;42641;59.794;17.616;2023-12-20T06:11:09;22.87;;;3.80;;
56770;SDS011;42641;59.794;17.616;2023-12-20T06:13:35;20.83;;;3.50;;
56770;SDS011;42641;59.794;17.616;2023-12-20T06:16:01;6.90;;;2.93;;
56770;SDS011;42641;59.794;17.616;2023-12-20T06:18:29;10.80;;;2.77;;
56770;SDS011;42641;59.794;17.616;2023-12-20T06:20:55;11.53;;;2.57;;
56770;SDS011;42641;59.794;17.616;2023-12-20T06:23:22;16.40;;;3.10;;
56770;SDS011;42641;59.794;17.616;2023-12-20T06:25:48;23.93;;;3.37;;
56770;SDS011;42641;59.794;17.616;2023-12-20T06:28:14;21.70;;;3.07;;
56770;SDS011;42641;59.794;17.616;2023-12-20T06:30:41;17.80;;;3.03;;
56770;SDS011;42641;59.794;17.616;2023-12-20T06:33:07;17.33;;;3.17;;
56770;SDS011;42641;59.794;17.616;2023-12-20T06:35:35;37.03;;;3.20;;
56770;SDS011;42641;59.794;17.616;2023-12-20T06:38:02;20.93;;;2.90;;
56770;SDS011;42641;59.794;17.616;2023-12-20T06:40:29;28.33;;;3.37;;
56770;SDS011;42641;59.794;17.616;2023-12-20T06:42:55;16.83;;;2.23;;
56770;SDS011;42641;59.794;17.616;2023-12-20T06:45:22;32.40;;;3.97;;
56770;SDS011;42641;59.794;17.616;2023-12-20T06:47:48;37.00;;;3.97;;
56770;SDS011;42641;59.794;17.616;2023-12-20T06:50:14;88.43;;;5.63;;
56770;SDS011;42641;59.794;17.616;2023-12-20T06:52:41;36.27;;;4.30;;
56770;SDS011;42641;59.794;17.616;2023-12-20T06:55:07;37.30;;;4.13;;
56770;SDS011;42641;59.794;17.616;2023-12-20T06:57:34;26.77;;;3.37;;
56770;SDS011;42641;59.794;17.616;2023-12-20T07:00:02;28.07;;;3.60;;
56770;SDS011;42641;59.794;17.616;2023-12-20T07:02:29;53.37;;;4.47;;
56770;SDS011;42641;59.794;17.616;2023-12-20T07:04:57;31.97;;;3.90;;
56770;SDS011;42641;59.794;17.616;2023-12-20T07:07:24;72.73;;;5.57;;
56770;SDS011;42641;59.794;17.616;2023-12-20T07:09:50;11.80;;;2.60;;
56770;SDS011;42641;59.794;17.616;2023-12-20T07:12:16;102.37;;;8.27;;
56770;SDS011;42641;59.794;17.616;2023-12-20T07:14:45;107.87;;;5.80;;
56770;SDS011;42641;59.794;17.616;2023-12-20T07:17:12;61.03;;;6.13;;
56770;SDS011;42641;59.794;17.616;2023-12-20T07:19:40;105.17;;;7.83;;
56770;SDS011;42641;59.794;17.616;2023-12-20T07:22:07;87.47;;;6.50;;
56770;SDS011;42641;59.794;17.616;2023-12-20T07:24:34;68.27;;;5.37;;
56770;SDS011;42641;59.794;17.616;2023-12-20T07:27:01;48.13;;;5.17;;
56770;SDS011;42641;59.794;17.616;2023-12-20T07:29:28;54.53;;;4.73;;
56770;SDS011;42641;59.794;17.616;2023-12-20T07:31:54;107.33;;;6.93;;
56770;SDS011;42641;59.794;17.616;2023-12-20T07:34:21;63.10;;;6.20;;
56770;SDS011;42641;59.794;17.616;2023-12-20T07:36:47;45.73;;;4.47;;
56770;SDS011;42641;59.794;17.616;2023-12-20T07:39:14;37.93;;;4.50;;
56770;SDS011;42641;59.794;17.616;2023-12-20T07:41:40;46.50;;;3.67;;
56770;SDS011;42641;59.794;17.616;2023-12-20T07:44:07;46.57;;;3.67;;
56770;SDS011;42641;59.794;17.616;2023-12-20T07:46:34;53.23;;;3.60;;
56770;SDS011;42641;59.794;17.616;2023-12-20T07:49:00;39.37;;;3.60;;
56770;SDS011;42641;59.794;17.616;2023-12-20T07:51:26;33.87;;;3.57;;
56770;SDS011;42641;59.794;17.616;2023-12-20T07:53:53;46.10;;;4.03;;
56770;SDS011;42641;59.794;17.616;2023-12-20T07:56:19;67.07;;;5.10;;
56770;SDS011;42641;59.794;17.616;2023-12-20T07:58:46;45.57;;;4.43;;
56770;SDS011;42641;59.794;17.616;2023-12-20T08:01:15;51.10;;;4.50;;
56770;SDS011;42641;59.794;17.616;2023-12-20T08:03:42;58.63;;;7.00;;
56770;SDS011;42641;59.794;17.616;2023-12-20T08:06:08;48.60;;;4.97;;
56770;SDS011;42641;59.794;17.616;2023-12-20T08:08:35;46.50;;;4.17;;
56770;SDS011;42641;59.794;17.616;2023-12-20T08:11:01;58.47;;;5.13;;
56770;SDS011;42641;59.794;17.616;2023-12-20T08:13:28;46.17;;;4.13;;
56770;SDS011;42641;59.794;17.616;2023-12-20T08:15:55;33.90;;;4.50;;
56770;SDS011;42641;59.794;17.616;2023-12-20T08:18:22;45.60;;;4.73;;
56770;SDS011;42641;59.794;17.616;2023-12-20T08:20:49;48.90;;;4.70;;
56770;SDS011;42641;59.794;17.616;2023-12-20T08:23:15;60.97;;;4.60;;
56770;SDS011;42641;59.794;17.616;2023-12-20T08:25:42;36.83;;;5.63;;
56770;SDS011;42641;59.794;17.616;2023-12-20T08:28:08;33.83;;;4.67;;
56770;SDS011;42641;59.794;17.616;2023-12-20T08:30:35;35.60;;;4.90;;
56770;SDS011;42641;59.794;17.616;2023-12-20T08:33:01;19.93;;;3.23;;
56770;SDS011;42641;59.794;17.616;2023-12-20T08:35:28;12.83;;;3.30;;
56770;SDS011;42641;59.794;17.616;2023-12-20T08:37:54;5.73;;;2.60;;
56770;SDS011;42641;59.794;17.616;2023-12-20T08:40:22;7.77;;;2.83;;
56770;SDS011;42641;59.794;17.616;2023-12-20T08:42:49;5.80;;;2.73;;
56770;SDS011;42641;59.794;17.616;2023-12-20T08:45:16;7.10;;;2.73;;
56770;SDS011;42641;59.794;17.616;2023-12-20T08:47:42;3.60;;;2.30;;
56770;SDS011;42641;59.794;17.616;2023-12-20T08:50:10;3.60;;;2.00;;
56770;SDS011;42641;59.794;17.616;2023-12-20T08:52:37;5.70;;;2.40;;
56770;SDS011;42641;59.794;17.616;2023-12-20T08:55:04;3.37;;;2.40;;
56770;SDS011;42641;59.794;17.616;2023-12-20T08:57:31;5.23;;;2.40;;
56770;SDS011;42641;59.794;17.616;2023-12-20T08:59:58;4.43;;;2.40;;
56770;SDS011;42641;59.794;17.616;2023-12-20T09:02:24;3.30;;;2.30;;
56770;SDS011;42641;59.794;17.616;2023-12-20T09:04:50;3.77;;;2.40;;
56770;SDS011;42641;59.794;17.616;2023-12-20T09:07:23;5.27;;;2.57;;
56770;SDS011;42641;59.794;17.616;2023-12-20T09:09:50;5.07;;;2.60;;
56770;SDS011;42641;59.794;17.616;2023-12-20T09:12:18;3.83;;;2.33;;
56770;SDS011;42641;59.794;17.616;2023-12-20T09:14:45;3.03;;;2.10;;
56770;SDS011;42641;59.794;17.616;2023-12-20T09:17:13;4.50;;;2.60;;
56770;SDS011;42641;59.794;17.616;2023-12-20T09:19:39;5.27;;;2.70;;
56770;SDS011;42641;59.794;17.616;2023-12-20T09:22:06;8.73;;;2.80;;
56770;SDS011;42641;59.794;17.616;2023-12-20T09:24:33;5.43;;;2.60;;
56770;SDS011;42641;59.794;17.616;2023-12-20T09:26:59;3.20;;;2.57;;
56770;SDS011;42641;59.794;17.616;2023-12-20T09:29:26;4.07;;;2.23;;
56770;SDS011;42641;59.794;17.616;2023-12-20T09:31:52;4.13;;;2.10;;
56770;SDS011;42641;59.794;17.616;2023-12-20T09:34:19;3.03;;;2.30;;
56770;SDS011;42641;59.794;17.616;2023-12-20T09:36:45;5.07;;;2.37;;
56770;SDS011;42641;59.794;17.616;2023-12-20T09:39:14;3.00;;;2.33;;
56770;SDS011;42641;59.794;17.616;2023-12-20T09:41:49;2.67;;;1.90;;
56770;SDS011;42641;59.794;17.616;2023-12-20T09:44:28;3.23;;;2.43;;
56770;SDS011;42641;59.794;17.616;2023-12-20T09:46:55;3.93;;;2.40;;
56770;SDS011;42641;59.794;17.616;2023-12-20T09:49:23;3.00;;;2.10;;
56770;SDS011;42641;59.794;17.616;2023-12-20T09:51:53;5.63;;;2.10;;
56770;SDS011;42641;59.794;17.616;2023-12-20T09:54:20;3.13;;;2.17;;
56770;SDS011;42641;59.794;17.616;2023-12-20T09:56:47;6.47;;;2.23;;
56770;SDS011;42641;59.794;17.616;2023-12-20T09:59:14;5.80;;;2.70;;
56770;SDS011;42641;59.794;17.616;2023-12-20T10:01:41;3.90;;;2.30;;
56770;SDS011;42641;59.794;17.616;2023-12-20T10:04:08;3.20;;;2.10;;
56770;SDS011;42641;59.794;17.616;2023-12-20T10:06:41;7.73;;;2.37;;
56770;SDS011;42641;59.794;17.616;2023-12-20T10:09:09;5.23;;;2.57;;
56770;SDS011;42641;59.794;17.616;2023-12-20T10:11:36;5.10;;;2.77;;
56770;SDS011;42641;59.794;17.616;2023-12-20T10:14:04;6.37;;;2.57;;
56770;SDS011;42641;59.794;17.616;2023-12-20T10:16:31;3.90;;;2.27;;
56770;SDS011;42641;59.794;17.616;2023-12-20T10:18:59;6.43;;;2.57;;
56770;SDS011;42641;59.794;17.616;2023-12-20T10:21:26;3.60;;;2.13;;
56770;SDS011;42641;59.794;17.616;2023-12-20T10:23:53;6.80;;;2.90;;
56770;SDS011;42641;59.794;17.616;2023-12-20T10:26:21;5.77;;;2.60;;
56770;SDS011;42641;59.794;17.616;2023-12-20T10:28:56;5.43;;;2.20;;
56770;SDS011;42641;59.794;17.616;2023-12-20T10:31:29;6.67;;;2.77;;
56770;SDS011;42641;59.794;17.616;2023-12-20T10:34:00;7.20;;;3.27;;
56770;SDS011;42641;59.794;17.616;2023-12-20T10:36:28;3.77;;;2.50;;
56770;SDS011;42641;59.794;17.616;2023-12-20T10:38:56;7.07;;;3.00;;
56770;SDS011;42641;59.794;17.616;2023-12-20T10:41:27;8.40;;;2.77;;
56770;SDS011;42641;59.794;17.616;2023-12-20T10:43:59;5.13;;;3.03;;
56770;SDS011;42641;59.794;17.616;2023-12-20T10:46:26;7.57;;;3.00;;
56770;SDS011;42641;59.794;17.616;2023-12-20T10:48:57;6.07;;;2.80;;
56770;SDS011;42641;59.794;17.616;2023-12-20T10:51:24;9.63;;;3.40;;
56770;SDS011;42641;59.794;17.616;2023-12-20T10:53:52;5.37;;;2.70;;
56770;SDS011;42641;59.794;17.616;2023-12-20T10:56:20;8.53;;;3.20;;
56770;SDS011;42641;59.794;17.616;2023-12-20T10:58:49;7.37;;;3.20;;
56770;SDS011;42641;59.794;17.616;2023-12-20T11:01:16;8.50;;;3.23;;
56770;SDS011;42641;59.794;17.616;2023-12-20T11:03:45;10.00;;;3.80;;
56770;SDS011;42641;59.794;17.616;2023-12-20T11:06:23;6.97;;;3.17;;
56770;SDS011;42641;59.794;17.616;2023-12-20T11:08:58;7.97;;;3.80;;
56770;SDS011;42641;59.794;17.616;2023-12-20T11:11:37;6.30;;;3.77;;
56770;SDS011;42641;59.794;17.616;2023-12-20T11:14:26;9.67;;;3.67;;
56770;SDS011;42641;59.794;17.616;2023-12-20T11:17:09;7.40;;;4.13;;
56770;SDS011;42641;59.794;17.616;2023-12-20T11:20:22;7.37;;;4.07;;
56770;SDS011;42641;59.794;17.616;2023-12-20T11:22:31;7.30;;;3.90;;
56770;SDS011;42641;59.794;17.616;2023-12-20T11:24:59;14.40;;;4.83;;
56770;SDS011;42641;59.794;17.616;2023-12-20T11:27:34;10.53;;;4.30;;
56770;SDS011;42641;59.794;17.616;2023-12-20T11:30:05;14.63;;;5.43;;
56770;SDS011;42641;59.794;17.616;2023-12-20T11:32:36;9.67;;;4.70;;
56770;SDS011;42641;59.794;17.616;2023-12-20T11:37:36;8.53;;;4.47;;
56770;SDS011;42641;59.794;17.616;2023-12-20T11:40:07;8.63;;;4.10;;
56770;SDS011;42641;59.794;17.616;2023-12-20T11:42:37;11.57;;;5.00;;
56770;SDS011;42641;59.794;17.616;2023-12-20T11:45:05;11.27;;;4.20;;
56770;SDS011;42641;59.794;17.616;2023-12-20T11:47:34;9.80;;;4.90;;
56770;SDS011;42641;59.794;17.616;2023-12-20T11:50:01;10.37;;;4.90;;
56770;SDS011;42641;59.794;17.616;2023-12-20T11:52:29;9.77;;;4.53;;
56770;SDS011;42641;59.794;17.616;2023-12-20T11:54:57;8.33;;;4.93;;
56770;SDS011;42641;59.794;17.616;2023-12-20T11:57:23;12.37;;;5.53;;
56770;SDS011;42641;59.794;17.616;2023-12-20T11:59:50;7.07;;;4.87;;
56770;SDS011;42641;59.794;17.616;2023-12-20T12:02:17;7.27;;;4.80;;
56770;SDS011;42641;59.794;17.616;2023-12-20T12:04:43;9.27;;;4.40;;
56770;SDS011;42641;59.794;17.616;2023-12-20T12:07:09;8.00;;;4.60;;
56770;SDS011;42641;59.794;17.616;2023-12-20T12:09:37;9.10;;;4.40;;
56770;SDS011;42641;59.794;17.616;2023-12-20T12:12:03;9.43;;;4.23;;
56770;SDS011;42641;59.794;17.616;2023-12-20T12:14:30;7.97;;;3.93;;
56770;SDS011;42641;59.794;17.616;2023-12-20T12:16:56;6.63;;;4.30;;
56770;SDS011;42641;59.794;17.616;2023-12-20T12:19:23;6.57;;;3.87;;
56770;SDS011;42641;59.794;17.616;2023-12-20T12:21:51;6.63;;;3.80;;
56770;SDS011;42641;59.794;17.616;2023-12-20T12:24:31;9.67;;;4.60;;
56770;SDS011;42641;59.794;17.616;2023-12-20T12:26:57;6.27;;;4.20;;
56770;SDS011;42641;59.794;17.616;2023-12-20T12:29:24;8.33;;;4.40;;
56770;SDS011;42641;59.794;17.616;2023-12-20T12:31:51;7.77;;;4.30;;
56770;SDS011;42641;59.794;17.616;2023-12-20T12:34:17;5.30;;;4.00;;
56770;SDS011;42641;59.794;17.616;2023-12-20T12:36:44;6.80;;;3.57;;
56770;SDS011;42641;59.794;17.616;2023-12-20T12:39:12;10.90;;;4.37;;
56770;SDS011;42641;59.794;17.616;2023-12-20T12:41:41;6.97;;;3.83;;
56770;SDS011;42641;59.794;17.616;2023-12-20T12:44:07;7.73;;;3.40;;
56770;SDS011;42641;59.794;17.616;2023-12-20T12:46:35;7.50;;;4.50;;
56770;SDS011;42641;59.794;17.616;2023-12-20T12:49:01;4.93;;;3.50;;
56770;SDS011;42641;59.794;17.616;2023-12-20T12:51:28;6.80;;;4.30;;
56770;SDS011;42641;59.794;17.616;2023-12-20T12:53:54;5.80;;;3.23;;
56770;SDS011;42641;59.794;17.616;2023-12-20T12:56:20;5.17;;;3.67;;
56770;SDS011;42641;59.794;17.616;2023-12-20T12:58:48;5.67;;;3.73;;
56770;SDS011;42641;59.794;17.616;2023-12-20T13:01:14;5.63;;;3.23;;
56770;SDS011;42641;59.794;17.616;2023-12-20T13:03:40;5.13;;;3.07;;
56770;SDS011;42641;59.794;17.616;2023-12-20T13:06:07;4.07;;;3.03;;
56770;SDS011;42641;59.794;17.616;2023-12-20T13:08:34;6.10;;;3.33;;
56770;SDS011;42641;59.794;17.616;2023-12-20T13:11:01;5.00;;;3.73;;
56770;SDS011;42641;59.794;17.616;2023-12-20T13:13:32;6.07;;;3.70;;
56770;SDS011;42641;59.794;17.616;2023-12-20T13:15:59;3.80;;;2.93;;
56770;SDS011;42641;59.794;17.616;2023-12-20T13:18:26;6.43;;;4.40;;
56770;SDS011;42641;59.794;17.616;2023-12-20T13:20:53;5.70;;;3.13;;
56770;SDS011;42641;59.794;17.616;2023-12-20T13:23:19;7.33;;;5.37;;
56770;SDS011;42641;59.794;17.616;2023-12-20T13:25:45;8.23;;;4.03;;
56770;SDS011;42641;59.794;17.616;2023-12-20T13:28:12;5.40;;;4.20;;
56770;SDS011;42641;59.794;17.616;2023-12-20T13:30:39;5.67;;;3.70;;
56770;SDS011;42641;59.794;17.616;2023-12-20T13:33:06;4.17;;;3.53;;
56770;SDS011;42641;59.794;17.616;2023-12-20T13:35:33;3.63;;;3.17;;
56770;SDS011;42641;59.794;17.616;2023-12-20T13:38:00;4.97;;;3.77;;
56770;SDS011;42641;59.794;17.616;2023-12-20T13:40:27;3.97;;;3.00;;
56770;SDS011;42641;59.794;17.616;2023-12-20T13:42:54;5.40;;;3.33;;
56770;SDS011;42641;59.794;17.616;2023-12-20T13:45:20;6.87;;;3.77;;
56770;SDS011;42641;59.794;17.616;2023-12-20T13:47:48;9.80;;;3.93;;
56770;SDS011;42641;59.794;17.616;2023-12-20T13:50:15;4.47;;;3.43;;
56770;SDS011;42641;59.794;17.616;2023-12-20T13:52:41;5.13;;;2.97;;
56770;SDS011;42641;59.794;17.616;2023-12-20T13:55:08;4.23;;;3.00;;
56770;SDS011;42641;59.794;17.616;2023-12-20T13:57:35;4.10;;;3.27;;
56770;SDS011;42641;59.794;17.616;2023-12-20T14:00:04;3.73;;;2.40;;
56770;SDS011;42641;59.794;17.616;2023-12-20T14:02:33;4.03;;;2.80;;
56770;SDS011;42641;59.794;17.616;2023-12-20T14:04:59;4.40;;;3.00;;
56770;SDS011;42641;59.794;17.616;2023-12-20T14:07:26;2.83;;;2.27;;
56770;SDS011;42641;59.794;17.616;2023-12-20T14:09:55;3.80;;;2.73;;
56770;SDS011;42641;59.794;17.616;2023-12-20T14:12:21;3.70;;;2.77;;
56770;SDS011;42641;59.794;17.616;2023-12-20T14:14:48;5.43;;;3.10;;
56770;SDS011;42641;59.794;17.616;2023-12-20T14:17:14;4.03;;;3.27;;
56770;SDS011;42641;59.794;17.616;2023-12-20T14:19:40;3.90;;;2.53;;
56770;SDS011;42641;59.794;17.616;2023-12-20T14:22:07;5.10;;;3.80;;
56770;SDS011;42641;59.794;17.616;2023-12-20T14:24:34;3.53;;;3.00;;
56770;SDS011;42641;59.794;17.616;2023-12-20T14:27:01;2.80;;;2.50;;
56770;SDS011;42641;59.794;17.616;2023-12-20T14:29:28;2.43;;;2.23;;
56770;SDS011;42641;59.794;17.616;2023-12-20T14:31:54;3.60;;;2.70;;
56770;SDS011;42641;59.794;17.616;2023-12-20T14:34:21;3.63;;;2.87;;